sensor_id;sensor_type;location;lat;lon;timestamp;pressure;altitude;pressure_sealevel;temperature;humidity
3428;BME280;1727;42.624;23.406;2023-01-25T00:01:45;95982.50;;;3.37;100.00
3428;BME280;1727;42.624;23.406;2023-01-25T00:04:12;95990.88;;;3.44;100.00
3428;BME280;1727;42.624;23.406;2023-01-25T00:06:39;95991.75;;;3.23;100.00
3428;BME280;1727;42.624;23.406;2023-01-25T00:09:06;95998.63;;;3.24;100.00
3428;BME280;1727;42.624;23.406;2023-01-25T00:11:34;95995.38;;;3.19;100.00
3428;BME280;1727;42.624;23.406;2023-01-25T00:14:02;95990.75;;;3.03;100.00
3428;BME280;1727;42.624;23.406;2023-01-25T00:16:29;95990.25;;;3.16;100.00
3428;BME280;1727;42.624;23.406;2023-01-25T00:18:56;95987.13;;;3.07;100.00
3428;BME280;1727;42.624;23.406;2023-01-25T00:21:24;95991.88;;;3.20;100.00
3428;BME280;1727;42.624;23.406;2023-01-25T00:23:51;95990.31;;;3.14;100.00
3428;BME280;1727;42.624;23.406;2023-01-25T00:26:18;95988.16;;;3.03;100.00
3428;BME280;1727;42.624;23.406;2023-01-25T00:28:49;95986.28;;;3.07;100.00
3428;BME280;1727;42.624;23.406;2023-01-25T00:31:20;95984.34;;;3.12;100.00
3428;BME280;1727;42.624;23.406;2023-01-25T00:33:56;95990.38;;;3.13;100.00
3428;BME280;1727;42.624;23.406;2023-01-25T00:36:32;95986.34;;;3.05;100.00
3428;BME280;1727;42.624;23.406;2023-01-25T00:38:59;95985.63;;;3.02;100.00
3428;BME280;1727;42.624;23.406;2023-01-25T00:41:26;95987.03;;;2.87;100.00
3428;BME280;1727;42.624;23.406;2023-01-25T00:43:54;95989.28;;;2.96;100.00
3428;BME280;1727;42.624;23.406;2023-01-25T00:46:21;95978.03;;;2.97;100.00
3428;BME280;1727;42.624;23.406;2023-01-25T00:48:48;95989.22;;;2.98;100.00
3428;BME280;1727;42.624;23.406;2023-01-25T00:51:15;95985.72;;;2.99;100.00
3428;BME280;1727;42.624;23.406;2023-01-25T00:53:41;95988.31;;;2.99;100.00
3428;BME280;1727;42.624;23.406;2023-01-25T00:56:08;95989.63;;;2.87;100.00
3428;BME280;1727;42.624;23.406;2023-01-25T00:58:35;95988.63;;;2.68;100.00
3428;BME280;1727;42.624;23.406;2023-01-25T01:01:03;95993.34;;;2.80;100.00
3428;BME280;1727;42.624;23.406;2023-01-25T01:03:30;95988.75;;;2.87;100.00
3428;BME280;1727;42.624;23.406;2023-01-25T01:06:02;95980.22;;;2.85;100.00
3428;BME280;1727;42.624;23.406;2023-01-25T01:08:30;95982.66;;;2.89;100.00
3428;BME280;1727;42.624;23.406;2023-01-25T01:10:59;95986.47;;;2.79;100.00
3428;BME280;1727;42.624;23.406;2023-01-25T01:13:26;95985.25;;;2.66;100.00
3428;BME280;1727;42.624;23.406;2023-01-25T01:15:53;95985.78;;;2.51;100.00
3428;BME280;1727;42.624;23.406;2023-01-25T01:18:22;95989.94;;;2.55;100.00
3428;BME280;1727;42.624;23.406;2023-01-25T01:20:49;95983.19;;;2.51;100.00
3428;BME280;1727;42.624;23.406;2023-01-25T01:23:16;95986.97;;;2.65;100.00
3428;BME280;1727;42.624;23.406;2023-01-25T01:25:43;95983.66;;;2.62;100.00
3428;BME280;1727;42.624;23.406;2023-01-25T01:28:10;95988.19;;;2.55;100.00
3428;BME280;1727;42.624;23.406;2023-01-25T01:30:37;95982.41;;;2.48;100.00
3428;BME280;1727;42.624;23.406;2023-01-25T01:33:04;95970.78;;;2.35;100.00
3428;BME280;1727;42.624;23.406;2023-01-25T01:35:32;95967.09;;;2.17;100.00
3428;BME280;1727;42.624;23.406;2023-01-25T01:37:59;95974.28;;;2.34;100.00
3428;BME280;1727;42.624;23.406;2023-01-25T01:40:26;95975.38;;;2.27;100.00
3428;BME280;1727;42.624;23.406;2023-01-25T01:42:57;95972.59;;;2.33;100.00
3428;BME280;1727;42.624;23.406;2023-01-25T01:45:48;95969.91;;;2.36;100.00
3428;BME280;1727;42.624;23.406;2023-01-25T01:48:18;95967.59;;;2.27;100.00
3428;BME280;1727;42.624;23.406;2023-01-25T01:50:51;95962.91;;;2.38;100.00
3428;BME280;1727;42.624;23.406;2023-01-25T01:53:19;95959.09;;;2.48;100.00
3428;BME280;1727;42.624;23.406;2023-01-25T01:55:47;95964.09;;;2.53;100.00
3428;BME280;1727;42.624;23.406;2023-01-25T01:58:14;95953.34;;;2.40;100.00
3428;BME280;1727;42.624;23.406;2023-01-25T02:00:40;95969.50;;;2.47;100.00
3428;BME280;1727;42.624;23.406;2023-01-25T02:03:08;95963.69;;;2.40;100.00
3428;BME280;1727;42.624;23.406;2023-01-25T02:05:40;95965.13;;;2.24;100.00
3428;BME280;1727;42.624;23.406;2023-01-25T02:08:12;95963.81;;;2.37;100.00
3428;BME280;1727;42.624;23.406;2023-01-25T02:10:41;95953.50;;;2.36;100.00
3428;BME280;1727;42.624;23.406;2023-01-25T02:13:09;95967.94;;;2.43;100.00
3428;BME280;1727;42.624;23.406;2023-01-25T02:15:38;95947.38;;;2.38;100.00
3428;BME280;1727;42.624;23.406;2023-01-25T02:18:07;95964.38;;;2.45;100.00
3428;BME280;1727;42.624;23.406;2023-01-25T02:20:36;95958.25;;;2.48;100.00
3428;BME280;1727;42.624;23.406;2023-01-25T02:23:11;95967.97;;;2.41;100.00
3428;BME280;1727;42.624;23.406;2023-01-25T02:25:43;95967.81;;;2.46;100.00
3428;BME280;1727;42.624;23.406;2023-01-25T02:28:13;95963.69;;;2.40;100.00
3428;BME280;1727;42.624;23.406;2023-01-25T02:30:42;95964.00;;;2.31;100.00
3428;BME280;1727;42.624;23.406;2023-01-25T02:33:09;95956.41;;;2.27;100.00
3428;BME280;1727;42.624;23.406;2023-01-25T02:35:38;95969.41;;;2.25;100.00
3428;BME280;1727;42.624;23.406;2023-01-25T02:38:06;95965.41;;;2.16;100.00
3428;BME280;1727;42.624;23.406;2023-01-25T02:40:39;95963.50;;;2.22;100.00
3428;BME280;1727;42.624;23.406;2023-01-25T02:43:10;95968.44;;;2.28;100.00
3428;BME280;1727;42.624;23.406;2023-01-25T02:45:37;95957.31;;;2.26;100.00
3428;BME280;1727;42.624;23.406;2023-01-25T02:48:04;95950.38;;;2.26;100.00
3428;BME280;1727;42.624;23.406;2023-01-25T02:50:31;95956.69;;;2.19;100.00
3428;BME280;1727;42.624;23.406;2023-01-25T02:52:58;95961.41;;;2.31;100.00
3428;BME280;1727;42.624;23.406;2023-01-25T02:55:25;95961.84;;;2.44;100.00
3428;BME280;1727;42.624;23.406;2023-01-25T02:57:51;95966.47;;;2.36;100.00
3428;BME280;1727;42.624;23.406;2023-01-25T03:00:20;95965.56;;;2.37;100.00
3428;BME280;1727;42.624;23.406;2023-01-25T03:02:47;95967.81;;;2.21;100.00
3428;BME280;1727;42.624;23.406;2023-01-25T03:05:14;95960.16;;;2.18;100.00
3428;BME280;1727;42.624;23.406;2023-01-25T03:07:40;95956.75;;;2.17;100.00
3428;BME280;1727;42.624;23.406;2023-01-25T03:10:08;95974.94;;;1.90;100.00
3428;BME280;1727;42.624;23.406;2023-01-25T03:12:35;95972.00;;;2.00;100.00
3428;BME280;1727;42.624;23.406;2023-01-25T03:15:03;95970.34;;;1.98;100.00
3428;BME280;1727;42.624;23.406;2023-01-25T03:17:31;95967.31;;;2.11;100.00
3428;BME280;1727;42.624;23.406;2023-01-25T03:19:58;95966.03;;;1.98;100.00
3428;BME280;1727;42.624;23.406;2023-01-25T03:22:25;95953.97;;;2.22;100.00
3428;BME280;1727;42.624;23.406;2023-01-25T03:24:51;95952.28;;;2.21;100.00
3428;BME280;1727;42.624;23.406;2023-01-25T03:27:18;95951.66;;;2.39;100.00
3428;BME280;1727;42.624;23.406;2023-01-25T03:29:45;95959.38;;;2.16;100.00
3428;BME280;1727;42.624;23.406;2023-01-25T03:32:12;95958.16;;;2.01;100.00
3428;BME280;1727;42.624;23.406;2023-01-25T03:34:40;95956.78;;;2.16;100.00
3428;BME280;1727;42.624;23.406;2023-01-25T03:37:07;95957.97;;;2.31;100.00
3428;BME280;1727;42.624;23.406;2023-01-25T03:39:33;95962.97;;;2.12;100.00
3428;BME280;1727;42.624;23.406;2023-01-25T03:42:00;95958.03;;;2.29;100.00
3428;BME280;1727;42.624;23.406;2023-01-25T03:44:27;95961.47;;;2.30;100.00
3428;BME280;1727;42.624;23.406;2023-01-25T03:46:54;95960.34;;;2.13;100.00
3428;BME280;1727;42.624;23.406;2023-01-25T03:49:20;95953.34;;;2.15;100.00
3428;BME280;1727;42.624;23.406;2023-01-25T03:51:49;95950.19;;;2.32;100.00
3428;BME280;1727;42.624;23.406;2023-01-25T03:54:15;95956.16;;;2.34;100.00
3428;BME280;1727;42.624;23.406;2023-01-25T03:56:42;95951.75;;;2.36;100.00
3428;BME280;1727;42.624;23.406;2023-01-25T03:59:09;95946.00;;;2.28;100.00
3428;BME280;1727;42.624;23.406;2023-01-25T04:01:37;95947.38;;;2.38;100.00
3428;BME280;1727;42.624;23.406;2023-01-25T04:04:03;95950.75;;;2.40;100.00
3428;BME280;1727;42.624;23.406;2023-01-25T04:06:30;95953.22;;;2.43;100.00
3428;BME280;1727;42.624;23.406;2023-01-25T04:08:59;95939.38;;;2.44;100.00
3428;BME280;1727;42.624;23.406;2023-01-25T04:11:26;95950.88;;;2.61;100.00
3428;BME280;1727;42.624;23.406;2023-01-25T04:13:53;95946.50;;;2.63;100.00
3428;BME280;1727;42.624;23.406;2023-01-25T04:16:20;95948.00;;;2.68;100.00
3428;BME280;1727;42.624;23.406;2023-01-25T04:18:46;95939.22;;;2.72;100.00
3428;BME280;1727;42.624;23.406;2023-01-25T04:21:13;95946.75;;;2.78;100.00
3428;BME280;1727;42.624;23.406;2023-01-25T04:23:40;95941.75;;;2.74;100.00
3428;BME280;1727;42.624;23.406;2023-01-25T04:26:09;95947.88;;;2.71;100.00
3428;BME280;1727;42.624;23.406;2023-01-25T04:28:36;95953.34;;;2.64;100.00
3428;BME280;1727;42.624;23.406;2023-01-25T04:31:04;95941.34;;;2.38;100.00
3428;BME280;1727;42.624;23.406;2023-01-25T04:33:31;95954.75;;;2.49;100.00
3428;BME280;1727;42.624;23.406;2023-01-25T04:35:58;95955.66;;;2.48;100.00
3428;BME280;1727;42.624;23.406;2023-01-25T04:38:25;95961.16;;;2.39;100.00
3428;BME280;1727;42.624;23.406;2023-01-25T04:40:52;95962.53;;;2.24;100.00
3428;BME280;1727;42.624;23.406;2023-01-25T04:43:20;95962.38;;;2.29;100.00
3428;BME280;1727;42.624;23.406;2023-01-25T04:45:47;95952.19;;;2.24;100.00
3428;BME280;1727;42.624;23.406;2023-01-25T04:48:14;95953.66;;;2.31;100.00
3428;BME280;1727;42.624;23.406;2023-01-25T04:50:42;95956.00;;;2.14;100.00
3428;BME280;1727;42.624;23.406;2023-01-25T04:53:10;95955.63;;;2.00;100.00
3428;BME280;1727;42.624;23.406;2023-01-25T04:55:37;95949.75;;;1.95;100.00
3428;BME280;1727;42.624;23.406;2023-01-25T04:58:04;95950.81;;;1.89;100.00
3428;BME280;1727;42.624;23.406;2023-01-25T05:00:32;95963.09;;;2.09;100.00
3428;BME280;1727;42.624;23.406;2023-01-25T05:02:59;95951.56;;;1.93;100.00
3428;BME280;1727;42.624;23.406;2023-01-25T05:05:26;95955.00;;;1.93;100.00
3428;BME280;1727;42.624;23.406;2023-01-25T05:07:53;95947.84;;;2.00;100.00
3428;BME280;1727;42.624;23.406;2023-01-25T05:10:20;95950.81;;;2.14;100.00
3428;BME280;1727;42.624;23.406;2023-01-25T05:12:47;95952.00;;;2.05;100.00
3428;BME280;1727;42.624;23.406;2023-01-25T05:15:14;95950.09;;;2.10;100.00
3428;BME280;1727;42.624;23.406;2023-01-25T05:17:42;95944.22;;;2.05;100.00
3428;BME280;1727;42.624;23.406;2023-01-25T05:20:10;95947.59;;;2.32;100.00
3428;BME280;1727;42.624;23.406;2023-01-25T05:22:37;95939.38;;;2.44;100.00
3428;BME280;1727;42.624;23.406;2023-01-25T05:25:05;95945.69;;;2.61;100.00
3428;BME280;1727;42.624;23.406;2023-01-25T05:27:51;95953.22;;;2.43;100.00
3428;BME280;1727;42.624;23.406;2023-01-25T05:30:17;95945.19;;;2.26;100.00
3428;BME280;1727;42.624;23.406;2023-01-25T05:32:47;95949.59;;;2.24;100.00
3428;BME280;1727;42.624;23.406;2023-01-25T05:35:13;95946.69;;;2.33;100.00
3428;BME280;1727;42.624;23.406;2023-01-25T05:37:40;95953.03;;;2.25;100.00
3428;BME280;1727;42.624;23.406;2023-01-25T05:40:08;95953.13;;;2.22;100.00
3428;BME280;1727;42.624;23.406;2023-01-25T05:42:35;95945.88;;;2.31;100.00
3428;BME280;1727;42.624;23.406;2023-01-25T05:45:02;95953.88;;;2.25;100.00
3428;BME280;1727;42.624;23.406;2023-01-25T05:47:29;95954.16;;;2.17;100.00
3428;BME280;1727;42.624;23.406;2023-01-25T05:49:57;95954.47;;;2.33;100.00
3428;BME280;1727;42.624;23.406;2023-01-25T05:52:24;95958.16;;;2.26;100.00
3428;BME280;1727;42.624;23.406;2023-01-25T05:54:50;95951.66;;;2.39;100.00
3428;BME280;1727;42.624;23.406;2023-01-25T05:57:17;95955.78;;;2.20;100.00
3428;BME280;1727;42.624;23.406;2023-01-25T05:59:44;95955.38;;;2.07;100.00
3428;BME280;1727;42.624;23.406;2023-01-25T06:02:11;95953.09;;;2.23;100.00
3428;BME280;1727;42.624;23.406;2023-01-25T06:04:37;95954.44;;;2.10;100.00
3428;BME280;1727;42.624;23.406;2023-01-25T06:07:06;95955.22;;;2.12;100.00
3428;BME280;1727;42.624;23.406;2023-01-25T06:09:32;95946.28;;;2.21;100.00
3428;BME280;1727;42.624;23.406;2023-01-25T06:11:59;95954.19;;;2.16;100.00
3428;BME280;1727;42.624;23.406;2023-01-25T06:14:28;95957.84;;;2.35;100.00
3428;BME280;1727;42.624;23.406;2023-01-25T06:16:54;95962.06;;;2.38;100.00
3428;BME280;1727;42.624;23.406;2023-01-25T06:19:21;95960.25;;;2.40;100.00
3428;BME280;1727;42.624;23.406;2023-01-25T06:21:49;95969.28;;;2.28;100.00
3428;BME280;1727;42.624;23.406;2023-01-25T06:24:17;95971.16;;;2.25;100.00
3428;BME280;1727;42.624;23.406;2023-01-25T06:26:43;95966.03;;;2.23;100.00
3428;BME280;1727;42.624;23.406;2023-01-25T06:29:10;95964.88;;;2.32;100.00
3428;BME280;1727;42.624;23.406;2023-01-25T06:31:37;95980.38;;;2.33;100.00
3428;BME280;1727;42.624;23.406;2023-01-25T06:34:04;95971.03;;;2.28;100.00
3428;BME280;1727;42.624;23.406;2023-01-25T06:36:32;95972.44;;;2.38;100.00
3428;BME280;1727;42.624;23.406;2023-01-25T06:38:59;95969.91;;;2.36;100.00
3428;BME280;1727;42.624;23.406;2023-01-25T06:41:28;95966.19;;;2.43;100.00
3428;BME280;1727;42.624;23.406;2023-01-25T06:43:54;95968.59;;;2.48;100.00
3428;BME280;1727;42.624;23.406;2023-01-25T06:46:22;95962.94;;;2.62;100.00
3428;BME280;1727;42.624;23.406;2023-01-25T06:48:48;95960.84;;;2.71;100.00
3428;BME280;1727;42.624;23.406;2023-01-25T06:51:15;95961.16;;;2.86;100.00
3428;BME280;1727;42.624;23.406;2023-01-25T06:53:44;95963.19;;;2.77;100.00
3428;BME280;1727;42.624;23.406;2023-01-25T06:56:12;95960.53;;;2.79;100.00
3428;BME280;1727;42.624;23.406;2023-01-25T06:58:41;95965.06;;;2.74;100.00
3428;BME280;1727;42.624;23.406;2023-01-25T07:01:11;95968.72;;;2.68;100.00
3428;BME280;1727;42.624;23.406;2023-01-25T07:03:38;95967.16;;;2.64;99.76
3428;BME280;1727;42.624;23.406;2023-01-25T07:06:06;95951.91;;;3.67;100.00
3428;BME280;1727;42.624;23.406;2023-01-25T07:08:35;95963.28;;;3.21;100.00
3428;BME280;1727;42.624;23.406;2023-01-25T07:11:04;95968.75;;;3.14;100.00
3428;BME280;1727;42.624;23.406;2023-01-25T07:13:32;95956.25;;;3.01;100.00
3428;BME280;1727;42.624;23.406;2023-01-25T07:16:03;95956.72;;;3.11;99.28
3428;BME280;1727;42.624;23.406;2023-01-25T07:18:31;95963.19;;;3.01;99.93
3428;BME280;1727;42.624;23.406;2023-01-25T07:21:02;95963.84;;;3.06;99.77
3428;BME280;1727;42.624;23.406;2023-01-25T07:23:29;95958.44;;;2.89;100.00
3428;BME280;1727;42.624;23.406;2023-01-25T07:25:58;95972.38;;;2.86;99.86
3428;BME280;1727;42.624;23.406;2023-01-25T07:28:25;95975.03;;;2.85;100.00
3428;BME280;1727;42.624;23.406;2023-01-25T07:30:52;95976.03;;;2.80;100.00
3428;BME280;1727;42.624;23.406;2023-01-25T07:33:20;95981.81;;;2.65;100.00
3428;BME280;1727;42.624;23.406;2023-01-25T07:35:47;95973.31;;;2.62;100.00
3428;BME280;1727;42.624;23.406;2023-01-25T07:38:15;95967.53;;;2.54;100.00
3428;BME280;1727;42.624;23.406;2023-01-25T07:40:42;95965.94;;;2.49;100.00
3428;BME280;1727;42.624;23.406;2023-01-25T07:43:09;95966.06;;;2.46;100.00
3428;BME280;1727;42.624;23.406;2023-01-25T07:59:15;95969.09;;;2.34;100.00
3428;BME280;1727;42.624;23.406;2023-01-25T08:01:42;95978.28;;;2.43;100.00
3428;BME280;1727;42.624;23.406;2023-01-25T08:04:09;95975.63;;;2.44;100.00
3428;BME280;1727;42.624;23.406;2023-01-25T08:06:37;95982.25;;;2.28;100.00
3428;BME280;1727;42.624;23.406;2023-01-25T08:09:07;95972.69;;;2.30;100.00
3428;BME280;1727;42.624;23.406;2023-01-25T08:11:34;95969.50;;;2.47;100.00
3428;BME280;1727;42.624;23.406;2023-01-25T08:14:01;95972.03;;;2.48;100.00
3428;BME280;1727;42.624;23.406;2023-01-25T08:16:30;95969.78;;;2.39;100.00
3428;BME280;1727;42.624;23.406;2023-01-25T08:18:59;95963.69;;;2.40;100.00
3428;BME280;1727;42.624;23.406;2023-01-25T08:21:29;95970.00;;;2.57;100.00
3428;BME280;1727;42.624;23.406;2023-01-25T08:23:57;95967.47;;;2.55;100.00
3428;BME280;1727;42.624;23.406;2023-01-25T08:26:24;95971.25;;;2.70;100.00
3428;BME280;1727;42.624;23.406;2023-01-25T08:28:52;95968.25;;;2.80;100.00
3428;BME280;1727;42.624;23.406;2023-01-25T08:31:22;95964.03;;;2.78;100.00
3428;BME280;1727;42.624;23.406;2023-01-25T08:33:52;95962.75;;;2.90;100.00
3428;BME280;1727;42.624;23.406;2023-01-25T08:36:20;95964.38;;;2.92;100.00
3428;BME280;1727;42.624;23.406;2023-01-25T08:38:52;95961.78;;;2.92;100.00
3428;BME280;1727;42.624;23.406;2023-01-25T08:41:19;95958.56;;;2.86;100.00
3428;BME280;1727;42.624;23.406;2023-01-25T08:43:46;95952.38;;;2.90;100.00
3428;BME280;1727;42.624;23.406;2023-01-25T08:46:15;95941.41;;;3.05;100.00
3428;BME280;1727;42.624;23.406;2023-01-25T08:48:42;95951.75;;;2.83;100.00
3428;BME280;1727;42.624;23.406;2023-01-25T08:51:12;95945.59;;;2.86;100.00
3428;BME280;1727;42.624;23.406;2023-01-25T08:53:39;95951.44;;;2.92;100.00
3428;BME280;1727;42.624;23.406;2023-01-25T08:56:08;95961.44;;;2.78;100.00
3428;BME280;1727;42.624;23.406;2023-01-25T08:58:36;95947.34;;;2.85;100.00
3428;BME280;1727;42.624;23.406;2023-01-25T09:01:04;95950.84;;;2.84;100.00
3428;BME280;1727;42.624;23.406;2023-01-25T09:03:34;95952.53;;;2.85;100.00
3428;BME280;1727;42.624;23.406;2023-01-25T09:06:01;95947.03;;;2.94;100.00
3428;BME280;1727;42.624;23.406;2023-01-25T09:08:30;95954.69;;;2.97;100.00
3428;BME280;1727;42.624;23.406;2023-01-25T09:11:00;95952.41;;;2.88;100.00
3428;BME280;1727;42.624;23.406;2023-01-25T09:13:26;95946.84;;;2.99;100.00
3428;BME280;1727;42.624;23.406;2023-01-25T09:15:58;95947.44;;;3.05;100.00
3428;BME280;1727;42.624;23.406;2023-01-25T09:18:25;95937.69;;;2.90;100.00
3428;BME280;1727;42.624;23.406;2023-01-25T09:20:52;95934.41;;;2.85;100.00
3428;BME280;1727;42.624;23.406;2023-01-25T09:23:19;95939.69;;;2.60;100.00
3428;BME280;1727;42.624;23.406;2023-01-25T09:25:55;95936.31;;;2.80;100.00
3428;BME280;1727;42.624;23.406;2023-01-25T09:28:22;95931.38;;;2.74;100.00
3428;BME280;1727;42.624;23.406;2023-01-25T09:30:53;95927.53;;;2.84;100.00
3428;BME280;1727;42.624;23.406;2023-01-25T09:33:23;95941.38;;;2.83;100.00
3428;BME280;1727;42.624;23.406;2023-01-25T09:35:50;95924.81;;;2.87;100.00
3428;BME280;1727;42.624;23.406;2023-01-25T09:38:17;95919.09;;;2.79;100.00
3428;BME280;1727;42.624;23.406;2023-01-25T09:40:54;95919.84;;;3.04;100.00
3428;BME280;1727;42.624;23.406;2023-01-25T09:43:33;95908.56;;;3.05;100.00
3428;BME280;1727;42.624;23.406;2023-01-25T09:46:12;95908.69;;;3.24;100.00
3428;BME280;1727;42.624;23.406;2023-01-25T09:48:47;95906.03;;;3.26;100.00
3428;BME280;1727;42.624;23.406;2023-01-25T09:51:24;95899.69;;;3.33;100.00
3428;BME280;1727;42.624;23.406;2023-01-25T09:53:52;95902.69;;;3.44;100.00
3428;BME280;1727;42.624;23.406;2023-01-25T09:56:27;95892.19;;;3.47;100.00
3428;BME280;1727;42.624;23.406;2023-01-25T09:58:57;95893.25;;;3.63;100.00
3428;BME280;1727;42.624;23.406;2023-01-25T10:01:28;95892.47;;;3.61;100.00
3428;BME280;1727;42.624;23.406;2023-01-25T10:04:01;95886.69;;;3.55;100.00
3428;BME280;1727;42.624;23.406;2023-01-25T10:06:37;95887.59;;;3.54;100.00
3428;BME280;1727;42.624;23.406;2023-01-25T10:09:18;95872.91;;;3.32;100.00
3428;BME280;1727;42.624;23.406;2023-01-25T10:11:49;95874.56;;;3.55;100.00
3428;BME280;1727;42.624;23.406;2023-01-25T10:14:17;95864.13;;;3.77;100.00
3428;BME280;1727;42.624;23.406;2023-01-25T10:17:03;95861.97;;;3.66;97.89
3428;BME280;1727;42.624;23.406;2023-01-25T10:19:41;95869.03;;;3.63;97.50
3428;BME280;1727;42.624;23.406;2023-01-25T10:22:16;95860.28;;;3.65;97.85
3428;BME280;1727;42.624;23.406;2023-01-25T10:25:05;95850.03;;;3.62;97.98
3428;BME280;1727;42.624;23.406;2023-01-25T10:27:49;95846.66;;;3.60;96.97
3428;BME280;1727;42.624;23.406;2023-01-25T10:30:25;95855.88;;;3.47;96.30
3428;BME280;1727;42.624;23.406;2023-01-25T10:32:55;95855.22;;;3.62;96.35
3428;BME280;1727;42.624;23.406;2023-01-25T10:35:27;95843.09;;;3.63;96.43
3428;BME280;1727;42.624;23.406;2023-01-25T10:37:58;95836.94;;;3.65;96.39
3428;BME280;1727;42.624;23.406;2023-01-25T10:40:39;95838.47;;;3.69;96.48
3428;BME280;1727;42.624;23.406;2023-01-25T10:43:15;95837.97;;;3.61;96.38
3428;BME280;1727;42.624;23.406;2023-01-25T10:45:42;95833.16;;;3.72;96.80
3428;BME280;1727;42.624;23.406;2023-01-25T10:48:14;95831.59;;;3.68;95.68
3428;BME280;1727;42.624;23.406;2023-01-25T10:50:45;95832.50;;;3.67;94.93
3428;BME280;1727;42.624;23.406;2023-01-25T10:53:24;95829.06;;;3.47;95.31
3428;BME280;1727;42.624;23.406;2023-01-25T10:55:57;95815.22;;;3.48;94.60
3428;BME280;1727;42.624;23.406;2023-01-25T10:58:37;95810.34;;;3.60;96.45
3428;BME280;1727;42.624;23.406;2023-01-25T11:01:07;95803.75;;;3.72;96.19
3428;BME280;1727;42.624;23.406;2023-01-25T11:03:36;95797.66;;;3.73;95.61
3428;BME280;1727;42.624;23.406;2023-01-25T11:06:04;95801.75;;;3.79;94.17
3428;BME280;1727;42.624;23.406;2023-01-25T11:08:34;95808.28;;;3.87;94.25
3428;BME280;1727;42.624;23.406;2023-01-25T11:11:14;95805.78;;;3.86;93.47
3428;BME280;1727;42.624;23.406;2023-01-25T11:13:49;95805.91;;;3.83;92.20
3428;BME280;1727;42.624;23.406;2023-01-25T11:16:32;95799.41;;;3.72;93.11
3428;BME280;1727;42.624;23.406;2023-01-25T11:19:00;95795.78;;;3.77;92.86
3428;BME280;1727;42.624;23.406;2023-01-25T11:21:30;95802.47;;;3.82;93.28
3428;BME280;1727;42.624;23.406;2023-01-25T11:24:03;95793.06;;;3.80;92.90
3428;BME280;1727;42.624;23.406;2023-01-25T11:26:31;95782.00;;;3.74;94.50
3428;BME280;1727;42.624;23.406;2023-01-25T11:29:11;95781.84;;;3.79;93.76
3428;BME280;1727;42.624;23.406;2023-01-25T11:31:40;95783.34;;;3.64;93.07
3428;BME280;1727;42.624;23.406;2023-01-25T11:34:11;95776.13;;;3.71;92.86
3428;BME280;1727;42.624;23.406;2023-01-25T11:36:54;95770.41;;;3.83;92.89
3428;BME280;1727;42.624;23.406;2023-01-25T11:39:37;95773.78;;;3.85;93.80
3428;BME280;1727;42.624;23.406;2023-01-25T11:42:21;95768.44;;;3.88;92.82
3428;BME280;1727;42.624;23.406;2023-01-25T11:45:32;95760.59;;;3.90;93.50
3428;BME280;1727;42.624;23.406;2023-01-25T11:51:05;95745.56;;;3.78;92.11
3428;BME280;1727;42.624;23.406;2023-01-25T11:53:45;95743.28;;;3.70;92.69
3428;BME280;1727;42.624;23.406;2023-01-25T11:56:23;95734.31;;;3.58;93.43
3428;BME280;1727;42.624;23.406;2023-01-25T11:59:02;95753.38;;;3.57;93.24
3428;BME280;1727;42.624;23.406;2023-01-25T12:01:41;95730.81;;;3.59;93.49
3428;BME280;1727;42.624;23.406;2023-01-25T12:04:32;95734.44;;;3.55;93.03
3428;BME280;1727;42.624;23.406;2023-01-25T12:07:05;95738.25;;;3.67;92.35
3428;BME280;1727;42.624;23.406;2023-01-25T12:09:59;95734.03;;;3.64;92.18
3428;BME280;1727;42.624;23.406;2023-01-25T12:12:35;95727.94;;;3.65;92.01
3428;BME280;1727;42.624;23.406;2023-01-25T12:15:26;95724.34;;;3.68;92.62
3428;BME280;1727;42.624;23.406;2023-01-25T12:18:16;95723.00;;;3.59;93.26
3428;BME280;1727;42.624;23.406;2023-01-25T12:21:01;95718.72;;;3.58;93.85
3428;BME280;1727;42.624;23.406;2023-01-25T12:23:39;95710.03;;;3.59;93.44
3428;BME280;1727;42.624;23.406;2023-01-25T12:26:17;95717.00;;;3.78;93.38
3428;BME280;1727;42.624;23.406;2023-01-25T12:28:51;95712.34;;;3.65;92.68
3428;BME280;1727;42.624;23.406;2023-01-25T12:31:25;95710.53;;;3.67;93.66
3428;BME280;1727;42.624;23.406;2023-01-25T12:33:59;95708.50;;;3.74;94.51
3428;BME280;1727;42.624;23.406;2023-01-25T12:36:31;95711.22;;;3.71;94.14
3428;BME280;1727;42.624;23.406;2023-01-25T12:39:02;95708.06;;;3.64;92.89
3428;BME280;1727;42.624;23.406;2023-01-25T12:41:34;95707.88;;;3.50;93.13
3428;BME280;1727;42.624;23.406;2023-01-25T12:44:14;95703.16;;;3.58;94.17
3428;BME280;1727;42.624;23.406;2023-01-25T12:46:46;95709.78;;;3.45;94.27
3428;BME280;1727;42.624;23.406;2023-01-25T12:49:20;95699.88;;;3.55;93.17
3428;BME280;1727;42.624;23.406;2023-01-25T12:51:50;95699.88;;;3.34;95.01
3428;BME280;1727;42.624;23.406;2023-01-25T12:54:23;95694.41;;;3.22;94.92
3428;BME280;1727;42.624;23.406;2023-01-25T12:56:59;95692.66;;;3.02;96.03
3428;BME280;1727;42.624;23.406;2023-01-25T12:59:35;95701.66;;;3.14;95.26
3428;BME280;1727;42.624;23.406;2023-01-25T13:02:17;95695.88;;;3.27;95.95
3428;BME280;1727;42.624;23.406;2023-01-25T13:05:00;95693.81;;;3.15;94.67
3428;BME280;1727;42.624;23.406;2023-01-25T13:07:33;95681.44;;;3.01;95.38
3428;BME280;1727;42.624;23.406;2023-01-25T13:10:11;95689.16;;;3.03;95.32
3428;BME280;1727;42.624;23.406;2023-01-25T13:12:55;95686.75;;;2.98;96.00
3428;BME280;1727;42.624;23.406;2023-01-25T13:15:43;95683.00;;;3.05;96.76
3428;BME280;1727;42.624;23.406;2023-01-25T13:18:36;95671.31;;;3.16;95.79
3428;BME280;1727;42.624;23.406;2023-01-25T13:21:09;95679.63;;;3.03;95.65
3428;BME280;1727;42.624;23.406;2023-01-25T13:23:37;95677.28;;;3.18;96.11
3428;BME280;1727;42.624;23.406;2023-01-25T13:26:36;95673.53;;;3.04;95.30
3428;BME280;1727;42.624;23.406;2023-01-25T13:35:30;95681.56;;;2.98;96.20
3428;BME280;1727;42.624;23.406;2023-01-25T13:41:11;95677.31;;;2.97;95.10
3428;BME280;1727;42.624;23.406;2023-01-25T13:43:41;95679.50;;;3.06;95.06
3428;BME280;1727;42.624;23.406;2023-01-25T13:46:11;95681.63;;;3.17;96.12
3428;BME280;1727;42.624;23.406;2023-01-25T13:48:54;95689.94;;;3.05;94.81
3428;BME280;1727;42.624;23.406;2023-01-25T13:51:23;95681.56;;;2.98;95.36
3428;BME280;1727;42.624;23.406;2023-01-25T13:53:58;95684.16;;;2.98;96.15
3428;BME280;1727;42.624;23.406;2023-01-25T13:56:28;95684.03;;;3.01;95.46
3428;BME280;1727;42.624;23.406;2023-01-25T13:58:55;95695.19;;;3.03;95.13